Terminal Aerodrome Forecast
Issued by NWS Duluth, MN

Home | Current Version | Previous Version | Text Only | Print | Product List | Glossary On
Versions: 1 2 3 4 5 6 7 8 9 10 11 12 13 14 15
660
FTUS43 KDLH 300524
TAFDLH
TAF
KDLH 300524Z 3006/0106 07007KT P6SM SCT150
     FM301500 07012G19KT P6SM BKN100
     FM301800 07015G25KT P6SM OVC100
     FM010000 07018G28KT 6SM -RASN SCT025 OVC050=

USA.gov is the U.S. government's official web portal to all federal, state and local government web resources and services.